Time;durP1;ratioP1;P1;durP2;ratioP2;P2;SDS_P1;SDS_P2;PMS_P1;PMS_P2;Temp;Humidity;BMP_temperature;BMP_pressure;BME280_temperature;BME280_humidity;BME280_pressure;Samples;Min_cycle;Max_cycle;Signal;HPM_P1;HPM_P2
2022/01/12 00:02:25;;;;;;;15.77;10.90;;;-0.40;99.90;;;;;;5132846;27;20520;-68
2022/01/12 00:04:53;;;;;;;13.53;9.93;;;-0.40;99.90;;;;;;5132924;27;20629;-66
2022/01/12 00:07:20;;;;;;;12.43;9.10;;;-0.40;99.90;;;;;;5132432;27;20443;-65
2022/01/12 00:09:47;;;;;;;14.43;10.37;;;-0.50;99.90;;;;;;5132187;27;20464;-66
2022/01/12 00:12:14;;;;;;;11.50;9.00;;;-0.50;99.90;;;;;;5132430;27;20476;-65
2022/01/12 00:14:41;;;;;;;11.73;10.20;;;-0.50;99.90;;;;;;5132231;27;20445;-66
2022/01/12 00:17:09;;;;;;;14.30;11.00;;;-0.60;99.90;;;;;;5132226;27;20528;-65
2022/01/12 00:19:36;;;;;;;12.43;10.17;;;-0.70;99.90;;;;;;5131832;27;20535;-66
2022/01/12 00:22:03;;;;;;;14.10;11.13;;;-0.70;99.90;;;;;;5132260;27;20443;-66
2022/01/12 00:24:51;;;;;;;11.97;9.50;;;-0.70;99.90;;;;;;5131979;27;20803;-64
2022/01/12 00:35:30;;;;;;;11.67;9.87;;;-0.70;99.90;;;;;;5132097;27;20817;-64
2022/01/12 00:37:57;;;;;;;13.57;11.33;;;-0.70;99.90;;;;;;5131663;27;20445;-66
2022/01/12 00:40:24;;;;;;;11.30;10.10;;;-0.80;99.90;;;;;;5131224;27;20449;-66
2022/01/12 00:42:51;;;;;;;12.17;9.43;;;-0.90;99.90;;;;;;5131455;27;20429;-66
2022/01/12 00:45:18;;;;;;;14.67;11.47;;;-1.00;99.90;;;;;;5131628;27;20534;-66
2022/01/12 00:47:47;;;;;;;12.93;10.37;;;-1.00;99.90;;;;;;5131505;27;20436;-67
2022/01/12 00:50:14;;;;;;;13.10;10.27;;;-0.90;99.90;;;;;;5131229;27;20819;-66
2022/01/12 00:52:41;;;;;;;13.43;10.47;;;-0.90;99.90;;;;;;5131554;27;20478;-66
2022/01/12 00:55:08;;;;;;;13.47;10.87;;;-0.90;99.90;;;;;;5131337;27;20451;-65
2022/01/12 00:57:35;;;;;;;13.87;10.70;;;-0.90;99.90;;;;;;5131146;27;20804;-66
2022/01/12 01:00:02;;;;;;;11.47;9.20;;;-0.90;99.90;;;;;;5131199;27;20464;-66
2022/01/12 01:02:29;;;;;;;15.47;11.10;;;-1.00;99.90;;;;;;5131426;27;20832;-65
2022/01/12 01:04:57;;;;;;;13.50;10.83;;;-1.00;99.90;;;;;;5131303;27;20482;-66
2022/01/12 01:07:24;;;;;;;13.90;10.60;;;-1.10;99.90;;;;;;5130880;27;20458;-66
2022/01/12 01:09:59;;;;;;;12.47;10.40;;;-1.10;99.90;;;;;;5130820;27;20547;-66
2022/01/12 01:12:26;;;;;;;11.77;9.83;;;-1.10;99.90;;;;;;5131254;27;20485;-65
2022/01/12 01:15:03;;;;;;;13.97;11.23;;;-1.00;99.90;;;;;;5131219;27;20436;-65
2022/01/12 01:25:46;;;;;;;18.43;10.57;;;-1.00;99.90;;;;;;5130813;27;20461;-65
2022/01/12 01:28:15;;;;;;;14.03;10.37;;;-1.10;99.90;;;;;;5130784;27;20439;-65
2022/01/12 01:30:44;;;;;;;14.60;10.70;;;-1.20;99.90;;;;;;5130407;27;20573;-66
2022/01/12 01:33:15;;;;;;;12.80;11.00;;;-1.30;99.90;;;;;;5130590;27;20996;-66
2022/01/12 01:35:49;;;;;;;17.47;11.77;;;-1.30;99.90;;;;;;5130783;27;20527;-66
2022/01/12 01:38:16;;;;;;;18.07;12.10;;;-1.40;99.90;;;;;;5130428;27;20501;-66
2022/01/12 01:40:43;;;;;;;15.10;10.90;;;-1.40;99.90;;;;;;5130485;27;20623;-65
2022/01/12 01:43:20;;;;;;;16.47;11.73;;;-1.40;99.90;;;;;;5130806;27;20437;-65
2022/01/12 01:54:09;;;;;;;13.60;11.00;;;-1.40;99.90;;;;;;5071784;28;20510;-66
2022/01/12 01:56:37;;;;;;;16.80;12.00;;;-1.40;99.90;;;;;;5130830;27;20435;-66
2022/01/12 01:59:04;;;;;;;16.00;12.70;;;-1.50;99.90;;;;;;5130358;27;20460;-66
2022/01/12 02:01:31;;;;;;;15.40;12.10;;;-1.40;99.90;;;;;;5130357;27;20482;-66
2022/01/12 02:04:02;;;;;;;15.23;12.80;;;-1.30;99.90;;;;;;5130560;27;20443;-66
2022/01/12 02:06:31;;;;;;;16.53;11.50;;;-1.30;99.90;;;;;;5130227;27;21025;-66
2022/01/12 02:08:59;;;;;;;15.43;11.90;;;-1.30;99.90;;;;;;5130499;27;20548;-66
2022/01/12 02:11:27;;;;;;;16.13;11.30;;;-1.30;99.90;;;;;;5130150;28;20512;-66
2022/01/12 02:13:54;;;;;;;16.23;12.13;;;-1.30;99.90;;;;;;5130620;28;20436;-66
2022/01/12 02:16:28;;;;;;;13.50;11.70;;;-1.30;99.90;;;;;;5130449;28;20522;-65
2022/01/12 02:19:11;;;;;;;14.80;11.50;;;-1.30;99.90;;;;;;5130334;28;20486;-66
2022/01/12 02:35:47;;;;;;;14.07;11.50;;;-1.60;99.90;;;;;;5130311;28;20416;-67
2022/01/12 02:41:02;;;;;;;17.23;11.93;;;-1.60;99.90;;;;;;5129705;28;20514;-65
2022/01/12 02:43:42;;;;;;;12.40;9.87;;;-1.70;99.90;;;;;;5129882;28;20428;-65
2022/01/12 02:53:38;;;;;;;12.87;10.00;;;-1.80;99.90;;;;;;5133674;27;20442;-65
2022/01/12 02:54:24;;;;;;;14.23;10.67;;;-1.80;99.90;;;;;;5133581;27;20447;-65
2022/01/12 02:56:51;;;;;;;12.00;9.50;;;-1.90;99.90;;;;;;5133823;27;20811;-65
2022/01/12 02:59:18;;;;;;;13.93;9.90;;;-1.90;99.90;;;;;;5133532;27;20934;-64
2022/01/12 03:04:25;;;;;;;13.23;9.60;;;-2.00;99.90;;;;;;5133643;27;20520;-65
2022/01/12 03:06:52;;;;;;;14.53;10.13;;;-2.00;99.90;;;;;;5133680;27;20449;-64
2022/01/12 03:09:19;;;;;;;14.00;10.43;;;-2.00;99.90;;;;;;5133454;27;20523;-64
2022/01/12 03:11:47;;;;;;;13.87;10.67;;;-2.00;99.90;;;;;;5133762;27;20792;-65
2022/01/12 03:14:14;;;;;;;12.07;10.30;;;-1.90;99.90;;;;;;5133402;27;20454;-65
2022/01/12 03:16:42;;;;;;;13.90;11.13;;;-1.90;99.90;;;;;;5133616;27;21170;-65
2022/01/12 03:19:09;;;;;;;14.53;10.90;;;-1.90;99.90;;;;;;5133467;27;20443;-64
2022/01/12 03:21:36;;;;;;;14.77;11.63;;;-1.90;99.90;;;;;;5133202;27;20971;-65
2022/01/12 03:24:04;;;;;;;12.00;9.87;;;-2.00;99.90;;;;;;5133406;27;20445;-64
2022/01/12 03:26:33;;;;;;;13.37;10.37;;;-2.00;99.90;;;;;;5133794;27;20882;-66
2022/01/12 03:29:02;;;;;;;12.10;9.30;;;-2.10;99.90;;;;;;5133555;27;20802;-64
2022/01/12 03:31:33;;;;;;;12.50;10.40;;;-2.00;99.90;;;;;;5133608;27;20453;-65
2022/01/12 03:34:06;;;;;;;15.17;10.13;;;-2.00;99.90;;;;;;5133593;27;20504;-66
2022/01/12 03:36:54;;;;;;;13.60;9.30;;;-2.00;99.90;;;;;;5133965;27;20441;-63
2022/01/12 03:39:21;;;;;;;14.13;10.17;;;-2.00;99.90;;;;;;5133143;27;20535;-64
2022/01/12 03:41:48;;;;;;;12.50;9.50;;;-2.00;99.90;;;;;;5133139;27;20976;-66
2022/01/12 03:44:18;;;;;;;12.90;9.70;;;-2.10;99.90;;;;;;5133241;27;20457;-64
2022/01/12 03:46:47;;;;;;;13.20;9.60;;;-2.10;99.90;;;;;;5133233;27;20445;-65
2022/01/12 03:49:14;;;;;;;11.63;9.10;;;-2.10;99.90;;;;;;5125893;27;20452;-64
2022/01/12 03:51:41;;;;;;;13.17;10.30;;;-2.10;99.90;;;;;;5112050;28;20961;-64
2022/01/12 03:54:09;;;;;;;12.70;9.90;;;-2.20;99.90;;;;;;5112361;28;20485;-64
2022/01/12 03:56:36;;;;;;;12.17;9.77;;;-2.20;99.90;;;;;;5112029;28;20520;-64
2022/01/12 03:59:04;;;;;;;15.90;11.37;;;-2.20;99.90;;;;;;5112493;28;21142;-65
2022/01/12 04:01:34;;;;;;;16.90;10.20;;;-2.30;99.90;;;;;;5111994;28;20504;-64
2022/01/12 04:04:04;;;;;;;17.50;11.20;;;-2.20;99.90;;;;;;5112647;28;20434;-65
2022/01/12 04:09:28;;;;;;;14.07;9.30;;;-2.20;99.90;;;;;;5068668;28;20939;-64
2022/01/12 04:11:54;;;;;;;14.30;10.27;;;-2.20;99.90;;;;;;5101878;28;21134;-64
2022/01/12 04:14:21;;;;;;;16.83;10.47;;;-2.20;99.90;;;;;;5113112;28;20438;-65
2022/01/12 04:16:49;;;;;;;15.80;9.47;;;-2.10;99.90;;;;;;5112011;28;21058;-64
2022/01/12 04:19:16;;;;;;;13.97;9.33;;;-2.20;99.90;;;;;;5111707;28;20442;-64
2022/01/12 04:21:47;;;;;;;12.70;9.27;;;-2.20;99.90;;;;;;5111496;28;20464;-66
2022/01/12 04:24:14;;;;;;;12.20;9.23;;;-2.10;99.90;;;;;;5112059;28;20533;-65
2022/01/12 04:26:41;;;;;;;12.83;9.50;;;-2.20;99.90;;;;;;5111793;28;20799;-65
2022/01/12 04:29:08;;;;;;;12.13;9.63;;;-2.30;99.90;;;;;;5111599;28;20483;-64
2022/01/12 04:31:36;;;;;;;12.60;9.93;;;-2.30;99.90;;;;;;5111417;28;20460;-64
2022/01/12 04:34:04;;;;;;;12.73;10.60;;;-2.30;99.90;;;;;;5111399;28;20481;-65
2022/01/12 04:36:32;;;;;;;13.10;9.73;;;-2.40;99.90;;;;;;5111734;28;20445;-64
2022/01/12 04:38:59;;;;;;;13.23;9.80;;;-2.40;99.90;;;;;;5111367;28;20434;-65
2022/01/12 04:41:26;;;;;;;11.63;9.60;;;-2.30;99.90;;;;;;5111232;28;20952;-65
2022/01/12 04:43:56;;;;;;;11.77;9.70;;;-2.20;99.90;;;;;;5111685;28;20433;-65
2022/01/12 04:46:48;;;;;;;13.33;9.17;;;-2.20;99.90;;;;;;5111599;28;20535;-64
2022/01/12 04:49:47;;;;;;;13.63;10.13;;;-2.30;99.90;;;;;;5111162;28;20448;-65
2022/01/12 04:52:14;;;;;;;13.90;9.30;;;-2.40;99.90;;;;;;5111128;28;20438;-65
2022/01/12 04:54:41;;;;;;;12.03;9.60;;;-2.40;99.90;;;;;;5111197;28;20434;-64
2022/01/12 04:57:08;;;;;;;15.60;11.17;;;-2.40;99.90;;;;;;5110939;28;20449;-64
2022/01/12 04:59:40;;;;;;;15.27;10.07;;;-2.50;99.90;;;;;;5110701;28;20969;-64
2022/01/12 05:06:22;;;;;;;14.67;10.90;;;-2.60;99.90;;;;;;5110851;28;20448;-65
2022/01/12 05:07:57;;;;;;;13.13;10.10;;;-2.60;99.90;;;;;;5110815;28;21081;-66
2022/01/12 05:13:08;;;;;;;16.40;11.23;;;-2.60;99.90;;;;;;5110337;28;20490;-65
2022/01/12 05:15:36;;;;;;;18.43;10.40;;;-2.60;99.90;;;;;;5110798;28;20438;-65
2022/01/12 05:18:03;;;;;;;13.80;10.43;;;-2.60;99.90;;;;;;5110887;28;20449;-66
2022/01/12 05:20:32;;;;;;;13.80;10.37;;;-2.70;99.90;;;;;;5110514;28;20462;-66
2022/01/12 05:22:58;;;;;;;14.63;10.60;;;-2.70;99.90;;;;;;5110584;28;20474;-65
2022/01/12 05:25:25;;;;;;;15.57;11.40;;;-2.70;99.90;;;;;;5110778;28;20449;-66
2022/01/12 05:27:53;;;;;;;15.47;10.77;;;-2.70;99.90;;;;;;5110706;28;20452;-67
2022/01/12 05:30:21;;;;;;;16.30;11.10;;;-2.60;99.90;;;;;;5110207;28;20461;-66
2022/01/12 05:32:47;;;;;;;16.93;11.07;;;-2.60;99.90;;;;;;5110447;28;20484;-66
2022/01/12 05:35:16;;;;;;;15.63;11.67;;;-2.60;99.90;;;;;;5111082;28;20441;-66
2022/01/12 05:37:45;;;;;;;20.20;12.60;;;-2.60;99.90;;;;;;5111397;28;20441;-66
2022/01/12 05:40:14;;;;;;;14.37;10.53;;;-2.50;99.90;;;;;;5111171;28;20462;-65
2022/01/12 05:42:43;;;;;;;14.07;9.73;;;-2.60;99.90;;;;;;5111282;28;21178;-65
2022/01/12 05:45:11;;;;;;;17.10;10.80;;;-2.60;99.90;;;;;;5111042;28;20949;-66
2022/01/12 05:50:23;;;;;;;14.83;9.77;;;-2.60;99.90;;;;;;5107774;27;20437;-64
2022/01/12 05:52:51;;;;;;;15.80;11.90;;;-2.60;99.90;;;;;;5130505;27;20483;-67
2022/01/12 05:55:18;;;;;;;15.10;10.83;;;-2.60;99.90;;;;;;5130570;27;20436;-64
2022/01/12 05:57:45;;;;;;;15.43;10.13;;;-2.70;99.90;;;;;;5118454;27;20441;-64
2022/01/12 06:00:14;;;;;;;14.87;12.10;;;-2.60;99.90;;;;;;5120383;27;20473;-66
2022/01/12 06:02:41;;;;;;;15.73;11.40;;;-2.60;99.90;;;;;;5111817;27;21873;-65
2022/01/12 06:05:09;;;;;;;14.63;11.10;;;-2.50;99.90;;;;;;5114892;27;20457;-66
2022/01/12 06:07:37;;;;;;;14.70;10.70;;;-2.50;99.90;;;;;;5119213;27;20456;-66
2022/01/12 06:10:06;;;;;;;15.10;10.10;;;-2.60;99.90;;;;;;5117685;27;20473;-65
2022/01/12 06:12:33;;;;;;;14.20;11.40;;;-2.60;99.90;;;;;;5128620;28;20449;-67
2022/01/12 06:14:59;;;;;;;16.00;11.07;;;-2.60;99.90;;;;;;5128823;27;21179;-65
2022/01/12 06:17:26;;;;;;;16.87;10.73;;;-2.60;99.90;;;;;;5128640;28;20535;-66
2022/01/12 06:19:54;;;;;;;15.20;11.73;;;-2.60;99.90;;;;;;5128170;28;20556;-66
2022/01/12 06:22:21;;;;;;;17.70;11.30;;;-2.60;99.90;;;;;;5128357;28;20445;-64
2022/01/12 06:24:48;;;;;;;16.83;11.27;;;-2.70;99.90;;;;;;5131530;27;20451;-65
2022/01/12 06:27:17;;;;;;;14.53;11.60;;;-2.70;99.90;;;;;;5134728;27;20546;-67
2022/01/12 06:29:51;;;;;;;15.43;9.60;;;-2.70;99.90;;;;;;5132837;27;20471;-66
2022/01/12 06:32:18;;;;;;;18.67;11.23;;;-2.70;99.90;;;;;;5134062;27;20942;-65
2022/01/12 06:34:45;;;;;;;14.50;10.23;;;-2.70;99.90;;;;;;5132978;27;20567;-66
2022/01/12 06:37:12;;;;;;;16.37;11.17;;;-2.70;99.90;;;;;;5133552;27;20449;-66
2022/01/12 06:39:39;;;;;;;16.53;11.77;;;-2.80;99.90;;;;;;5133916;27;20817;-68
2022/01/12 06:42:07;;;;;;;12.73;10.00;;;-2.90;99.90;;;;;;5134228;27;20448;-66
2022/01/12 06:44:35;;;;;;;14.83;10.43;;;-2.90;99.90;;;;;;5133107;27;20443;-66
2022/01/12 06:47:04;;;;;;;15.33;12.03;;;-3.00;99.90;;;;;;5133880;27;20448;-66
2022/01/12 06:49:31;;;;;;;16.33;11.90;;;-2.90;99.90;;;;;;5133018;27;20440;-66
2022/01/12 06:51:59;;;;;;;20.33;12.00;;;-2.80;99.90;;;;;;5133461;27;20448;-66
2022/01/12 06:54:27;;;;;;;17.13;12.13;;;-2.80;99.90;;;;;;5133631;27;21095;-66
2022/01/12 06:56:54;;;;;;;17.00;11.97;;;-2.80;99.90;;;;;;5133503;27;20448;-66
2022/01/12 06:59:21;;;;;;;21.47;15.20;;;-2.80;99.90;;;;;;5133302;27;20493;-67
2022/01/12 07:01:49;;;;;;;22.13;15.00;;;-2.80;99.90;;;;;;5132037;27;20472;-68
2022/01/12 07:04:16;;;;;;;14.70;11.67;;;-2.70;99.90;;;;;;5131672;27;20433;-67
2022/01/12 07:06:43;;;;;;;24.20;16.13;;;-2.60;99.90;;;;;;5130511;27;20459;-66
2022/01/12 07:09:10;;;;;;;19.17;13.40;;;-2.50;99.90;;;;;;5131457;27;20444;-67
2022/01/12 07:11:36;;;;;;;19.80;14.43;;;-2.50;99.90;;;;;;5131861;27;20471;-67
2022/01/12 07:14:03;;;;;;;17.67;13.03;;;-2.60;99.90;;;;;;5132850;27;21264;-66
2022/01/12 07:16:30;;;;;;;20.23;14.20;;;-2.60;99.90;;;;;;5133324;27;20950;-66
2022/01/12 07:18:59;;;;;;;21.10;14.37;;;-2.70;99.90;;;;;;5132891;27;20537;-66
2022/01/12 07:21:26;;;;;;;16.37;12.20;;;-2.70;99.90;;;;;;5132969;27;20469;-66
2022/01/12 07:23:54;;;;;;;15.33;11.57;;;-2.60;99.90;;;;;;5133130;27;20536;-66
2022/01/12 07:26:21;;;;;;;17.60;12.90;;;-2.70;99.90;;;;;;5133314;27;20551;-67
2022/01/12 07:28:49;;;;;;;18.00;13.17;;;-2.70;99.90;;;;;;5132920;27;20540;-66
2022/01/12 07:31:15;;;;;;;18.37;13.53;;;-2.70;99.90;;;;;;5132523;27;20840;-67
2022/01/12 07:33:42;;;;;;;20.70;13.23;;;-2.70;99.90;;;;;;5132765;27;20480;-66
2022/01/12 07:36:11;;;;;;;21.33;14.90;;;-2.70;99.90;;;;;;5132223;27;20451;-67
2022/01/12 07:38:38;;;;;;;20.07;13.43;;;-2.60;99.90;;;;;;5132904;27;20457;-67
2022/01/12 07:41:05;;;;;;;19.03;14.70;;;-2.60;99.90;;;;;;5132208;27;20995;-67
2022/01/12 07:43:32;;;;;;;19.97;13.80;;;-2.50;99.90;;;;;;5132586;27;21024;-68
2022/01/12 07:45:59;;;;;;;18.77;14.40;;;-2.40;99.90;;;;;;5132389;27;20445;-64
2022/01/12 07:48:26;;;;;;;20.53;15.47;;;-2.30;99.90;;;;;;5132439;27;20451;-64
2022/01/12 07:50:53;;;;;;;21.20;15.00;;;-2.20;99.90;;;;;;5132171;27;20463;-65
2022/01/12 07:53:21;;;;;;;20.90;14.60;;;-2.00;99.90;;;;;;5132300;27;21016;-63
2022/01/12 07:55:48;;;;;;;22.13;16.70;;;-1.90;99.90;;;;;;5132455;27;20842;-65
2022/01/12 07:58:15;;;;;;;22.00;14.63;;;-1.70;99.90;;;;;;5132344;27;20746;-65
2022/01/12 08:00:42;;;;;;;27.30;17.40;;;-1.50;99.90;;;;;;5132111;27;20493;-66
2022/01/12 08:03:08;;;;;;;20.33;15.77;;;-1.40;99.90;;;;;;5132053;27;20449;-65
2022/01/12 08:05:35;;;;;;;23.03;14.87;;;-1.30;99.90;;;;;;5132266;27;20448;-64
2022/01/12 08:08:02;;;;;;;24.30;15.50;;;-1.20;99.90;;;;;;5132066;27;20456;-66
2022/01/12 08:10:30;;;;;;;20.13;14.27;;;-1.10;99.90;;;;;;5131813;27;21012;-65
2022/01/12 08:12:57;;;;;;;21.93;15.20;;;-1.00;99.90;;;;;;5132196;27;21062;-66
2022/01/12 08:15:24;;;;;;;21.33;15.43;;;-0.90;99.90;;;;;;5132462;27;20522;-67
2022/01/12 08:17:51;;;;;;;20.63;15.20;;;-0.80;99.90;;;;;;5132047;27;20909;-66
2022/01/12 08:20:22;;;;;;;22.80;16.13;;;-0.70;99.90;;;;;;5131841;27;20854;-64
2022/01/12 08:22:49;;;;;;;19.53;14.93;;;-0.50;99.90;;;;;;5132059;27;20544;-66
2022/01/12 08:25:16;;;;;;;22.17;15.50;;;-0.30;99.90;;;;;;5132182;27;20441;-66
2022/01/12 08:27:44;;;;;;;18.70;16.40;;;-0.20;99.90;;;;;;5131939;27;20451;-66
2022/01/12 08:30:16;;;;;;;21.40;15.97;;;-0.20;99.90;;;;;;5131690;27;20863;-65
2022/01/12 08:32:43;;;;;;;20.87;14.77;;;-0.20;99.90;;;;;;5131898;27;20447;-65
2022/01/12 08:35:11;;;;;;;28.20;14.20;;;-0.30;99.90;;;;;;5131978;27;20480;-66
2022/01/12 08:37:38;;;;;;;23.80;14.47;;;-0.30;99.90;;;;;;5131963;27;20453;-65
2022/01/12 08:40:06;;;;;;;21.80;15.80;;;-0.30;99.90;;;;;;5131619;27;20544;-64
2022/01/12 08:42:34;;;;;;;19.47;15.27;;;-0.30;99.90;;;;;;5131699;27;20447;-66
2022/01/12 08:45:02;;;;;;;20.27;16.73;;;-0.30;99.90;;;;;;5132032;27;20441;-66
2022/01/12 08:47:29;;;;;;;21.77;17.00;;;-0.30;99.90;;;;;;5130857;27;20469;-66
2022/01/12 08:49:56;;;;;;;20.03;15.97;;;-0.30;99.90;;;;;;5133186;27;20468;-66
2022/01/12 08:52:23;;;;;;;20.20;14.37;;;-0.40;99.90;;;;;;5133230;27;20455;-66
2022/01/12 08:54:51;;;;;;;22.07;15.73;;;-0.40;99.90;;;;;;5133502;27;20508;-67
2022/01/12 08:57:17;;;;;;;20.20;15.90;;;-0.40;99.90;;;;;;5131373;27;20452;-66
2022/01/12 08:59:44;;;;;;;18.83;15.27;;;-0.30;99.90;;;;;;5130650;27;21073;-67
2022/01/12 09:02:14;;;;;;;22.80;16.47;;;-0.10;99.90;;;;;;5131109;27;20455;-65
2022/01/12 09:04:41;;;;;;;22.77;15.40;;;0.00;99.90;;;;;;5131052;27;20501;-66
2022/01/12 09:07:08;;;;;;;20.57;15.60;;;0.00;99.90;;;;;;5130839;27;20465;-66
2022/01/12 09:09:35;;;;;;;20.93;16.23;;;0.10;99.90;;;;;;5130734;27;20540;-66
2022/01/12 09:12:03;;;;;;;22.43;16.03;;;0.10;99.90;;;;;;5131034;27;20449;-66
2022/01/12 09:14:30;;;;;;;19.67;14.57;;;0.10;99.90;;;;;;5130691;27;20473;-66
2022/01/12 09:16:59;;;;;;;19.93;14.73;;;0.20;99.90;;;;;;5130768;27;20817;-67
2022/01/12 09:19:28;;;;;;;18.73;15.10;;;0.30;99.90;;;;;;5130391;27;20441;-65
2022/01/12 09:21:56;;;;;;;28.13;16.23;;;0.50;99.90;;;;;;5130892;27;20506;-66
2022/01/12 09:24:23;;;;;;;21.03;13.97;;;0.60;99.90;;;;;;5130816;27;20459;-67
2022/01/12 09:26:50;;;;;;;22.67;15.90;;;0.70;99.90;;;;;;5130613;27;20968;-64
2022/01/12 09:29:18;;;;;;;18.33;15.57;;;0.90;99.90;;;;;;5130409;27;20835;-66
2022/01/12 09:31:44;;;;;;;20.80;17.07;;;1.00;99.90;;;;;;5130458;27;20469;-66
2022/01/12 09:34:11;;;;;;;17.53;14.80;;;1.20;99.90;;;;;;5130370;27;20848;-66
2022/01/12 09:36:39;;;;;;;19.40;14.70;;;1.40;99.90;;;;;;5130412;27;20444;-67
2022/01/12 09:39:06;;;;;;;18.73;14.53;;;1.60;99.90;;;;;;5130309;27;20452;-67
2022/01/12 09:41:33;;;;;;;17.40;14.50;;;1.90;99.90;;;;;;5130394;27;20488;-65
2022/01/12 09:44:00;;;;;;;20.00;15.20;;;2.00;99.90;;;;;;5130513;27;20449;-66
2022/01/12 09:46:27;;;;;;;18.90;14.83;;;2.10;99.90;;;;;;5130462;27;20448;-67
2022/01/12 09:48:54;;;;;;;18.43;14.10;;;2.10;99.90;;;;;;5130216;27;20451;-66
2022/01/12 09:51:23;;;;;;;19.13;15.57;;;2.10;99.90;;;;;;5130385;27;20456;-66
2022/01/12 09:53:52;;;;;;;16.47;14.30;;;1.90;99.90;;;;;;5130311;27;20451;-66
2022/01/12 09:56:21;;;;;;;17.03;13.93;;;1.80;99.90;;;;;;5130635;27;20453;-67
2022/01/12 09:58:48;;;;;;;17.43;14.27;;;1.80;99.90;;;;;;5130183;27;20799;-66
2022/01/12 10:01:25;;;;;;;18.23;14.23;;;1.80;99.90;;;;;;5129996;27;20461;-67
2022/01/12 10:03:52;;;;;;;18.33;13.57;;;1.80;99.90;;;;;;5130268;27;20949;-66
2022/01/12 10:06:19;;;;;;;20.60;15.23;;;1.80;99.90;;;;;;5130388;27;20448;-67
2022/01/12 10:08:45;;;;;;;19.30;14.50;;;1.90;99.90;;;;;;5129974;27;20463;-67
2022/01/12 10:11:15;;;;;;;18.93;14.50;;;2.10;99.90;;;;;;5129908;27;20541;-65
2022/01/12 10:13:42;;;;;;;20.00;15.60;;;2.20;99.90;;;;;;5130109;28;20458;-67
2022/01/12 10:16:14;;;;;;;15.37;13.70;;;2.50;99.90;;;;;;5129799;28;21003;-65
2022/01/12 10:18:48;;;;;;;18.40;14.40;;;2.80;99.90;;;;;;5130056;28;20441;-66
2022/01/12 10:21:34;;;;;;;17.23;13.30;;;2.90;99.90;;;;;;5129671;28;20498;-66
2022/01/12 10:24:04;;;;;;;16.60;13.57;;;2.90;99.90;;;;;;5130342;28;20997;-65
2022/01/12 10:26:37;;;;;;;17.50;14.70;;;2.90;99.90;;;;;;5129807;28;20950;-65
2022/01/12 10:29:10;;;;;;;20.10;15.10;;;3.00;99.90;;;;;;5129990;27;20440;-66
2022/01/12 10:31:47;;;;;;;17.43;14.33;;;3.40;99.90;;;;;;5129825;28;20461;-65
2022/01/12 10:34:15;;;;;;;14.53;12.30;;;3.70;99.90;;;;;;5129671;28;20480;-67
2022/01/12 10:36:43;;;;;;;15.30;13.70;;;3.50;99.90;;;;;;5129707;27;20865;-65
2022/01/12 10:39:12;;;;;;;14.67;13.03;;;3.40;99.90;;;;;;5129480;28;20448;-65
2022/01/12 10:41:56;;;;;;;16.17;13.07;;;3.60;99.90;;;;;;5129539;27;20469;-66
2022/01/12 10:44:24;;;;;;;14.23;11.90;;;3.90;99.90;;;;;;5129718;28;20472;-67
2022/01/12 10:47:02;;;;;;;16.80;12.63;;;4.30;99.90;;;;;;5129642;28;20448;-66
2022/01/12 10:49:30;;;;;;;14.93;12.90;;;4.50;99.90;;;;;;5129193;27;20537;-66
2022/01/12 10:51:58;;;;;;;15.57;12.53;;;4.90;99.90;;;;;;5129455;28;21015;-68
2022/01/12 10:54:25;;;;;;;15.40;12.10;;;5.00;99.90;;;;;;5129612;28;20859;-65
2022/01/12 10:56:53;;;;;;;17.10;12.67;;;4.70;99.90;;;;;;5129503;28;20449;-66
2022/01/12 10:59:21;;;;;;;14.60;11.90;;;4.70;99.90;;;;;;5129080;28;20519;-67
2022/01/12 11:01:49;;;;;;;14.40;12.30;;;4.30;99.90;;;;;;5129385;28;20453;-67
2022/01/12 11:04:16;;;;;;;14.60;11.97;;;3.90;99.90;;;;;;5129789;28;20448;-66
2022/01/12 11:06:43;;;;;;;16.10;13.40;;;3.80;99.90;;;;;;5129610;28;20452;-67
2022/01/12 11:09:09;;;;;;;13.30;11.90;;;3.80;99.90;;;;;;5129346;28;20447;-67
2022/01/12 11:11:36;;;;;;;16.43;13.90;;;3.60;99.90;;;;;;5131556;27;20464;-67
2022/01/12 11:14:05;;;;;;;15.33;12.20;;;3.60;99.90;;;;;;5133221;27;20945;-67
2022/01/12 11:16:32;;;;;;;13.90;11.70;;;3.60;99.90;;;;;;5133210;27;20444;-66
2022/01/12 11:19:00;;;;;;;13.23;11.80;;;3.10;99.90;;;;;;5133297;27;20447;-68
2022/01/12 11:21:35;;;;;;;16.23;10.93;;;2.90;99.90;;;;;;5132936;27;20888;-67
2022/01/12 11:24:04;;;;;;;13.33;10.30;;;2.80;99.90;;;;;;5132959;27;20443;-66
2022/01/12 11:26:33;;;;;;;13.40;11.60;;;2.80;99.90;;;;;;5132800;27;20437;-67
2022/01/12 11:29:00;;;;;;;13.93;11.40;;;2.90;99.90;;;;;;5132699;27;20484;-68
2022/01/12 11:31:30;;;;;;;13.37;11.37;;;3.00;99.90;;;;;;5132738;27;20476;-67
2022/01/12 11:33:57;;;;;;;14.13;11.50;;;3.10;99.90;;;;;;5132773;27;20813;-66
2022/01/12 11:36:27;;;;;;;14.73;12.83;;;3.20;99.90;;;;;;5132845;27;20483;-67
2022/01/12 11:39:01;;;;;;;13.33;11.13;;;3.20;99.90;;;;;;5132730;27;21233;-67
2022/01/12 11:41:30;;;;;;;13.73;11.20;;;3.20;99.90;;;;;;5127642;27;20984;-67
2022/01/12 11:44:04;;;;;;;16.27;11.60;;;3.10;99.90;;;;;;5131571;27;20441;-68
2022/01/12 11:46:43;;;;;;;14.47;12.23;;;3.00;99.90;;;;;;5132327;27;20429;-68
2022/01/12 11:49:10;;;;;;;14.63;12.47;;;3.00;99.90;;;;;;5131999;27;20432;-67
2022/01/12 11:51:39;;;;;;;15.90;12.20;;;2.90;99.90;;;;;;5122716;27;20840;-67
2022/01/12 11:54:10;;;;;;;14.87;11.90;;;3.00;99.90;;;;;;5131211;27;20950;-66
2022/01/12 11:56:38;;;;;;;14.17;12.27;;;3.10;99.90;;;;;;5131204;27;20488;-67
2022/01/12 11:59:10;;;;;;;14.63;12.57;;;3.10;99.90;;;;;;5129246;27;20441;-66
2022/01/12 12:01:44;;;;;;;12.93;10.90;;;3.10;99.90;;;;;;5110707;28;21006;-67
2022/01/12 12:04:24;;;;;;;10.27;8.60;;;3.00;99.90;;;;;;5110361;28;20886;-67
2022/01/12 12:07:01;;;;;;;12.30;11.00;;;3.00;99.90;;;;;;5110717;28;20947;-67
2022/01/12 12:09:36;;;;;;;12.50;10.77;;;3.00;99.90;;;;;;5110453;28;20448;-67
2022/01/12 12:12:11;;;;;;;13.37;11.97;;;3.00;99.90;;;;;;5110517;28;20445;-65
2022/01/12 12:14:38;;;;;;;16.20;11.83;;;3.00;99.90;;;;;;5110258;28;21136;-66
2022/01/12 12:17:06;;;;;;;15.00;11.00;;;2.90;99.90;;;;;;5110050;28;20548;-66
2022/01/12 12:19:37;;;;;;;13.53;12.03;;;3.00;99.90;;;;;;5109893;28;20457;-67
2022/01/12 12:22:12;;;;;;;16.10;11.27;;;3.00;99.90;;;;;;5110243;28;20445;-66
2022/01/12 12:24:39;;;;;;;15.03;11.00;;;3.00;99.90;;;;;;5110137;28;21000;-67
2022/01/12 12:27:09;;;;;;;14.57;12.70;;;3.10;99.90;;;;;;5109876;28;20947;-66
2022/01/12 12:29:36;;;;;;;12.53;11.23;;;3.00;99.90;;;;;;5109923;28;20450;-66
2022/01/12 12:32:03;;;;;;;15.20;10.80;;;3.00;99.90;;;;;;5110139;28;20450;-66
2022/01/12 12:34:33;;;;;;;14.27;11.00;;;2.90;99.90;;;;;;5110090;28;20446;-67
2022/01/12 12:37:02;;;;;;;12.60;11.27;;;3.00;99.90;;;;;;5111122;28;20853;-67
2022/01/12 12:39:32;;;;;;;15.27;13.33;;;3.00;99.90;;;;;;5110555;27;20520;-65
2022/01/12 12:42:00;;;;;;;14.27;10.90;;;3.10;99.90;;;;;;5130738;27;20448;-67
2022/01/12 12:44:29;;;;;;;12.93;10.50;;;3.10;99.90;;;;;;5131291;27;20445;-66
2022/01/12 12:47:07;;;;;;;13.50;11.20;;;3.10;99.90;;;;;;5131265;27;20441;-67
2022/01/12 12:49:45;;;;;;;13.07;11.10;;;3.20;99.90;;;;;;5125942;27;20444;-65
2022/01/12 12:52:12;;;;;;;12.40;10.00;;;3.20;99.90;;;;;;5123339;27;20444;-66
2022/01/12 12:54:41;;;;;;;14.20;11.60;;;3.20;99.90;;;;;;5129231;27;20443;-66
2022/01/12 12:57:10;;;;;;;13.77;11.43;;;3.10;99.90;;;;;;5130553;27;20441;-67
2022/01/12 12:59:37;;;;;;;13.20;11.53;;;3.00;99.90;;;;;;5127601;27;20822;-66
2022/01/12 13:02:11;;;;;;;13.10;11.77;;;2.90;99.90;;;;;;5130462;27;20441;-69
2022/01/12 13:04:40;;;;;;;14.37;12.53;;;3.00;99.90;;;;;;5110564;28;20966;-68
2022/01/12 13:07:15;;;;;;;14.87;11.40;;;3.10;99.90;;;;;;5110453;28;20454;-66
2022/01/12 13:09:42;;;;;;;12.63;10.67;;;3.10;99.90;;;;;;5110403;28;20544;-65
2022/01/12 13:12:09;;;;;;;13.80;10.90;;;3.10;99.90;;;;;;5110577;28;20456;-66
2022/01/12 13:14:42;;;;;;;13.00;10.53;;;3.10;99.90;;;;;;5110857;28;20480;-66
2022/01/12 13:17:09;;;;;;;12.93;11.57;;;3.10;99.90;;;;;;5110722;28;20437;-67
2022/01/12 13:22:26;;;;;;;13.13;11.60;;;3.10;99.90;;;;;;5125929;27;20468;-66
2022/01/12 13:24:53;;;;;;;16.47;12.57;;;3.00;99.90;;;;;;5125297;27;20975;-65
2022/01/12 13:27:20;;;;;;;13.03;10.47;;;3.00;99.90;;;;;;5129460;27;20886;-64
2022/01/12 13:29:48;;;;;;;12.80;10.90;;;3.00;99.90;;;;;;5128047;27;20461;-64
2022/01/12 13:32:16;;;;;;;13.17;10.70;;;2.90;99.90;;;;;;5129103;27;21056;-67
2022/01/12 13:34:55;;;;;;;15.43;11.57;;;2.80;99.90;;;;;;5128158;27;20483;-64
2022/01/12 13:37:22;;;;;;;13.47;11.73;;;2.80;99.90;;;;;;5128292;27;20930;-64
2022/01/12 13:40:09;;;;;;;14.23;12.00;;;2.70;99.90;;;;;;5128338;27;20492;-65
2022/01/12 13:42:49;;;;;;;14.13;11.30;;;2.70;99.90;;;;;;5124008;27;20452;-66
2022/01/12 13:45:18;;;;;;;14.67;12.03;;;2.70;99.90;;;;;;5122367;27;21067;-64